createdAt,value
2023-02-21T00:02:01.062Z,16.90
2023-02-21T00:04:47.339Z,16.90
2023-02-21T00:07:32.828Z,16.90
2023-02-21T00:10:18.458Z,16.90
2023-02-21T00:13:03.804Z,16.90
2023-02-21T00:15:49.722Z,16.90
2023-02-21T00:18:35.396Z,16.90
2023-02-21T00:21:21.086Z,16.80
2023-02-21T00:24:06.564Z,16.90
2023-02-21T00:26:51.792Z,16.80
2023-02-21T00:29:37.335Z,16.80
2023-02-21T00:32:22.723Z,16.80
2023-02-21T00:35:08.236Z,16.80
2023-02-21T00:37:53.737Z,16.80
2023-02-21T00:40:39.211Z,16.70
2023-02-21T00:43:24.977Z,16.70
2023-02-21T00:46:10.329Z,16.70
2023-02-21T00:48:55.909Z,16.60
2023-02-21T00:51:41.377Z,16.60
2023-02-21T00:54:27.084Z,16.60
2023-02-21T00:57:12.534Z,16.60
2023-02-21T00:59:58.084Z,16.60
2023-02-21T01:02:43.674Z,16.60
2023-02-21T01:05:28.941Z,16.60
2023-02-21T01:08:14.189Z,16.60
2023-02-21T01:10:59.823Z,16.70
2023-02-21T01:13:45.309Z,16.60
2023-02-21T01:16:30.757Z,16.60
2023-02-21T01:19:16.455Z,16.60
2023-02-21T01:22:01.877Z,16.60
2023-02-21T01:24:47.323Z,16.60
2023-02-21T01:27:32.880Z,16.60
2023-02-21T01:30:18.561Z,16.60
2023-02-21T01:33:04.237Z,16.60
2023-02-21T01:35:49.690Z,16.60
2023-02-21T01:38:35.033Z,16.60
2023-02-21T01:41:20.634Z,16.60
2023-02-21T01:44:24.929Z,16.70
2023-02-21T01:47:10.628Z,16.70
2023-02-21T01:49:59.721Z,16.70
2023-02-21T01:52:46.357Z,16.70
2023-02-21T01:55:32.070Z,16.80
2023-02-21T01:58:17.447Z,16.80
2023-02-21T02:01:03.541Z,16.80
2023-02-21T02:03:52.236Z,16.80
2023-02-21T02:06:37.815Z,16.80
2023-02-21T02:09:34.547Z,16.80
2023-02-21T02:12:31.852Z,16.80
2023-02-21T02:15:01.527Z,16.80
2023-02-21T02:17:56.264Z,16.80
2023-02-21T02:20:40.719Z,16.80
2023-02-21T02:23:26.022Z,16.80
2023-02-21T02:25:55.690Z,16.80
2023-02-21T02:28:43.492Z,16.80
2023-02-21T02:31:16.623Z,16.80
2023-02-21T02:34:03.760Z,16.70
2023-02-21T02:36:39.210Z,16.70
2023-02-21T02:39:12.014Z,16.60
2023-02-21T02:41:44.838Z,16.70
2023-02-21T02:44:39.589Z,16.60
2023-02-21T02:47:15.326Z,16.50
2023-02-21T02:49:44.644Z,16.50
2023-02-21T02:52:11.633Z,16.40
2023-02-21T02:54:38.509Z,16.40
2023-02-21T02:57:10.820Z,16.40
2023-02-21T02:59:45.882Z,16.40
2023-02-21T03:02:18.739Z,16.40
2023-02-21T03:05:01.382Z,16.30
2023-02-21T03:07:39.698Z,16.30
2023-02-21T03:10:27.278Z,16.30
2023-02-21T03:13:27.176Z,16.30
2023-02-21T03:16:26.223Z,16.30
2023-02-21T03:19:01.291Z,16.30
2023-02-21T03:21:46.140Z,16.30
2023-02-21T03:24:16.146Z,16.20
2023-02-21T03:26:46.442Z,16.20
2023-02-21T03:29:15.520Z,16.20
2023-02-21T03:31:51.729Z,16.20
2023-02-21T03:34:18.884Z,16.20
2023-02-21T03:36:46.472Z,16.20
2023-02-21T03:39:13.437Z,16.20
2023-02-21T03:41:40.557Z,16.20
2023-02-21T03:44:07.440Z,16.20
2023-02-21T03:46:35.012Z,16.20
2023-02-21T03:49:01.940Z,16.20
2023-02-21T03:51:28.824Z,16.20
2023-02-21T03:53:55.710Z,16.20
2023-02-21T03:56:26.109Z,16.20
2023-02-21T03:58:54.928Z,16.20
2023-02-21T04:01:21.879Z,16.30
2023-02-21T04:03:48.758Z,16.30
2023-02-21T04:06:15.673Z,16.30
2023-02-21T04:08:42.630Z,16.30
2023-02-21T04:11:09.528Z,16.30
2023-02-21T04:13:36.422Z,16.30
2023-02-21T04:16:03.609Z,16.20
2023-02-21T04:18:30.486Z,16.20
2023-02-21T04:20:57.637Z,16.20
2023-02-21T04:23:24.470Z,16.20
2023-02-21T04:25:51.445Z,16.20
2023-02-21T04:28:18.639Z,16.20
2023-02-21T04:30:45.569Z,16.20
2023-02-21T04:33:12.758Z,16.20
2023-02-21T04:35:39.695Z,16.30
2023-02-21T04:38:06.598Z,16.30
2023-02-21T04:40:33.469Z,16.30
2023-02-21T04:43:00.409Z,16.30
2023-02-21T04:45:27.288Z,16.30
2023-02-21T04:47:54.186Z,16.30
2023-02-21T04:50:21.200Z,16.30
2023-02-21T04:52:48.808Z,16.30
2023-02-21T04:55:16.138Z,16.30
2023-02-21T04:57:43.044Z,16.30
2023-02-21T05:00:11.758Z,16.30
2023-02-21T05:02:42.274Z,16.30
2023-02-21T05:05:09.477Z,16.30
2023-02-21T05:07:36.401Z,16.30
2023-02-21T05:10:05.620Z,16.30
2023-02-21T05:12:32.820Z,16.30
2023-02-21T05:14:59.656Z,16.30
2023-02-21T05:17:28.063Z,16.30
2023-02-21T05:19:55.618Z,16.30
2023-02-21T05:22:22.755Z,16.30
2023-02-21T05:24:50.078Z,16.30
2023-02-21T05:27:22.064Z,16.30
2023-02-21T05:29:50.652Z,16.30
2023-02-21T05:32:19.391Z,16.30
2023-02-21T05:34:47.869Z,16.30
2023-02-21T05:37:15.949Z,16.30
2023-02-21T05:39:43.086Z,16.20
2023-02-21T05:42:09.990Z,16.20
2023-02-21T05:44:36.939Z,16.20
2023-02-21T05:47:03.940Z,16.20
2023-02-21T05:49:30.820Z,16.20
2023-02-21T05:51:57.741Z,16.10
2023-02-21T05:54:24.833Z,16.10
2023-02-21T05:56:52.764Z,16.10
2023-02-21T05:59:21.300Z,16.10
2023-02-21T06:01:49.907Z,16.10
2023-02-21T06:04:17.777Z,16.10
2023-02-21T06:06:44.977Z,16.10
2023-02-21T06:09:12.469Z,16.10
2023-02-21T06:11:40.655Z,16.10
2023-02-21T06:14:15.132Z,16.10
2023-02-21T06:16:42.472Z,16.10
2023-02-21T06:19:10.964Z,16.10
2023-02-21T06:21:37.855Z,16.00
2023-02-21T06:24:05.380Z,16.00
2023-02-21T06:26:32.506Z,16.00
2023-02-21T06:28:59.546Z,16.00
2023-02-21T06:31:26.893Z,15.90
2023-02-21T06:33:53.833Z,15.90
2023-02-21T06:36:25.195Z,15.90
2023-02-21T06:38:55.090Z,15.90
2023-02-21T06:41:28.231Z,15.80
2023-02-21T06:43:56.472Z,15.80
2023-02-21T06:46:26.060Z,15.80
2023-02-21T06:48:53.122Z,15.80
2023-02-21T06:51:20.496Z,15.80
2023-02-21T06:53:50.502Z,15.80
2023-02-21T06:56:17.634Z,15.80
2023-02-21T06:58:44.729Z,15.80
2023-02-21T07:01:11.704Z,15.80
2023-02-21T07:03:44.441Z,15.80
2023-02-21T07:06:11.375Z,15.80
2023-02-21T07:08:38.314Z,15.80
2023-02-21T07:11:06.589Z,15.80
2023-02-21T07:13:34.114Z,15.90
2023-02-21T07:16:02.412Z,15.90
2023-02-21T07:18:29.343Z,15.90
2023-02-21T07:20:57.292Z,15.90
2023-02-21T07:23:24.258Z,15.90
2023-02-21T07:25:51.174Z,16.00
2023-02-21T07:28:18.367Z,16.00
2023-02-21T07:30:45.319Z,16.10
2023-02-21T07:33:12.247Z,16.10
2023-02-21T07:35:39.176Z,16.10
2023-02-21T07:38:06.086Z,16.10
2023-02-21T07:40:33.041Z,16.10
2023-02-21T07:42:59.946Z,16.10
2023-02-21T07:45:26.776Z,16.20
2023-02-21T07:47:53.671Z,16.20
2023-02-21T07:50:20.591Z,16.30
2023-02-21T07:52:47.476Z,16.30
2023-02-21T07:55:15.172Z,16.30
2023-02-21T07:57:42.006Z,16.40
2023-02-21T08:00:09.572Z,16.40
2023-02-21T08:02:36.405Z,16.40
2023-02-21T08:05:04.977Z,16.40
2023-02-21T08:07:31.999Z,16.40
2023-02-21T08:09:58.880Z,16.40
2023-02-21T08:12:25.793Z,16.40
2023-02-21T08:14:52.631Z,16.50
2023-02-21T08:17:19.587Z,16.50
2023-02-21T08:19:46.441Z,16.50
2023-02-21T08:22:13.378Z,16.60
2023-02-21T08:24:40.444Z,16.60
2023-02-21T08:27:07.299Z,16.60
2023-02-21T08:29:34.137Z,16.60
2023-02-21T08:32:01.062Z,16.70
2023-02-21T08:34:29.476Z,16.60
2023-02-21T08:36:56.618Z,16.70
2023-02-21T08:39:23.932Z,16.70
2023-02-21T08:41:52.429Z,16.70
2023-02-21T08:44:21.895Z,16.70
2023-02-21T08:46:49.912Z,16.70
2023-02-21T08:49:17.140Z,16.80
2023-02-21T08:51:44.083Z,16.80
2023-02-21T08:54:11.155Z,16.80
2023-02-21T08:56:38.006Z,16.80
2023-02-21T08:59:05.915Z,16.90
2023-02-21T09:01:35.703Z,16.90
2023-02-21T09:04:04.660Z,16.90
2023-02-21T09:09:47.426Z,16.90
2023-02-21T09:12:14.291Z,17.00
2023-02-21T09:14:42.874Z,17.00
2023-02-21T09:17:12.968Z,17.10
2023-02-21T09:19:40.413Z,17.10
2023-02-21T09:22:08.713Z,17.10
2023-02-21T09:24:35.637Z,17.10
2023-02-21T09:27:03.191Z,17.10
2023-02-21T09:29:45.338Z,17.20
2023-02-21T09:32:13.465Z,17.20
2023-02-21T09:34:40.355Z,17.20
2023-02-21T09:37:07.593Z,17.20
2023-02-21T09:39:36.930Z,17.20
2023-02-21T09:42:03.888Z,17.20
2023-02-21T09:44:30.856Z,17.20
2023-02-21T09:47:07.162Z,17.20
2023-02-21T09:49:39.179Z,17.20
2023-02-21T09:52:07.358Z,17.20
2023-02-21T09:54:39.076Z,17.20
2023-02-21T09:57:12.063Z,17.10
2023-02-21T09:59:38.953Z,17.10
2023-02-21T10:02:14.626Z,17.10
2023-02-21T10:04:47.449Z,17.10
2023-02-21T10:07:26.125Z,17.10
2023-02-21T10:09:52.937Z,17.10
2023-02-21T10:12:43.171Z,17.10
2023-02-21T10:15:43.722Z,17.00
2023-02-21T10:18:38.366Z,17.00
2023-02-21T10:21:14.783Z,17.10
2023-02-21T10:23:49.988Z,17.10
2023-02-21T10:26:24.267Z,17.10
2023-02-21T10:28:54.000Z,17.10
2023-02-21T10:31:33.261Z,17.10
2023-02-21T10:34:00.245Z,17.20
2023-02-21T10:36:28.409Z,17.20
2023-02-21T10:39:16.821Z,17.20
2023-02-21T10:41:43.980Z,17.20
2023-02-21T10:44:31.988Z,17.30
2023-02-21T10:47:02.011Z,17.20
2023-02-21T10:49:35.280Z,17.20
2023-02-21T10:52:09.417Z,17.20
2023-02-21T10:54:37.377Z,17.30
2023-02-21T10:57:07.821Z,17.30
2023-02-21T10:59:38.082Z,17.30
2023-02-21T11:02:30.899Z,17.30
2023-02-21T11:05:10.369Z,17.30
2023-02-21T11:07:37.371Z,17.30
2023-02-21T11:10:28.894Z,17.40
2023-02-21T11:13:15.379Z,17.30
2023-02-21T11:15:43.868Z,17.40
2023-02-21T11:18:21.341Z,17.40
2023-02-21T11:20:48.681Z,17.40
2023-02-21T11:23:22.878Z,17.50
2023-02-21T11:26:12.679Z,17.50
2023-02-21T11:28:43.698Z,17.50
2023-02-21T11:31:20.961Z,17.50
2023-02-21T11:34:06.149Z,17.50
2023-02-21T11:36:38.501Z,17.50
2023-02-21T11:39:21.679Z,17.50
2023-02-21T11:41:54.012Z,17.50
2023-02-21T11:44:42.137Z,17.50
2023-02-21T11:47:17.322Z,17.50
2023-02-21T11:50:08.596Z,17.50
2023-02-21T11:52:41.313Z,17.50
2023-02-21T11:55:17.372Z,17.50
2023-02-21T11:57:51.334Z,17.50
2023-02-21T12:00:40.493Z,17.50
2023-02-21T12:03:30.874Z,17.50
2023-02-21T12:06:19.544Z,17.50
2023-02-21T12:09:05.388Z,17.60
2023-02-21T12:11:32.199Z,17.60
2023-02-21T12:14:37.977Z,17.60
2023-02-21T12:17:16.805Z,17.60
2023-02-21T12:20:02.085Z,17.60
2023-02-21T12:23:06.652Z,17.60
2023-02-21T12:26:14.300Z,17.60
2023-02-21T12:29:03.594Z,17.60
2023-02-21T12:31:49.358Z,17.60
2023-02-21T12:34:34.857Z,17.60
2023-02-21T12:37:13.516Z,17.70
2023-02-21T12:40:05.119Z,17.70
2023-02-21T12:42:39.069Z,17.70
2023-02-21T12:45:21.157Z,17.70
2023-02-21T12:48:26.186Z,17.70
2023-02-21T12:51:04.739Z,17.70
2023-02-21T12:53:38.016Z,17.70
2023-02-21T12:56:24.221Z,17.80
2023-02-21T12:59:02.799Z,17.80
2023-02-21T13:01:45.127Z,17.80
2023-02-21T13:04:23.890Z,17.80
2023-02-21T13:07:25.791Z,17.90
2023-02-21T13:10:03.510Z,17.90
2023-02-21T13:12:55.565Z,17.90
2023-02-21T13:15:26.127Z,17.90
2023-02-21T13:18:16.811Z,17.90
2023-02-21T13:20:56.499Z,17.90
2023-02-21T13:23:43.701Z,18.00
2023-02-21T13:26:29.690Z,18.00
2023-02-21T13:28:58.157Z,18.00
2023-02-21T13:31:26.439Z,18.00
2023-02-21T13:33:57.620Z,18.00
2023-02-21T13:36:24.476Z,18.10
2023-02-21T13:39:17.764Z,18.10
2023-02-21T13:42:02.038Z,18.10
2023-02-21T13:44:33.632Z,18.10
2023-02-21T13:47:03.643Z,18.10
2023-02-21T13:49:55.353Z,18.10
2023-02-21T13:52:25.205Z,18.00
2023-02-21T13:55:23.135Z,18.10
2023-02-21T13:57:50.067Z,18.00
2023-02-21T14:00:25.903Z,18.00
2023-02-21T14:03:03.228Z,18.00
2023-02-21T14:05:45.943Z,18.00
2023-02-21T14:08:24.456Z,18.00
2023-02-21T14:10:55.266Z,18.00
2023-02-21T14:13:46.591Z,18.00
2023-02-21T14:16:13.637Z,18.00
2023-02-21T14:18:43.373Z,18.00
2023-02-21T14:21:24.593Z,18.00
2023-02-21T14:24:00.332Z,18.00
2023-02-21T14:26:42.787Z,18.00
2023-02-21T14:29:11.049Z,17.90
2023-02-21T14:31:58.348Z,17.90
2023-02-21T14:34:48.533Z,17.90
2023-02-21T14:37:30.661Z,17.90
2023-02-21T14:40:10.700Z,17.90
2023-02-21T14:43:12.222Z,17.90
2023-02-21T14:45:51.234Z,17.90
2023-02-21T14:48:44.167Z,17.90
2023-02-21T14:51:48.036Z,17.90
2023-02-21T14:54:38.911Z,17.90
2023-02-21T14:57:42.616Z,17.90
2023-02-21T15:00:29.388Z,17.90
2023-02-21T15:03:08.852Z,17.80
2023-02-21T15:06:03.391Z,17.80
2023-02-21T15:08:47.343Z,17.80
2023-02-21T15:11:37.785Z,17.80
2023-02-21T15:14:24.210Z,17.80
2023-02-21T15:17:12.017Z,17.80
2023-02-21T15:19:39.325Z,17.70
2023-02-21T15:22:27.258Z,17.80
2023-02-21T15:25:09.253Z,17.70
2023-02-21T15:27:49.807Z,17.70
2023-02-21T15:30:23.673Z,17.70
2023-02-21T15:33:02.260Z,17.60
2023-02-21T15:35:43.175Z,17.60
2023-02-21T15:38:43.128Z,17.60
2023-02-21T15:41:33.611Z,17.60
2023-02-21T15:44:06.568Z,17.60
2023-02-21T15:46:45.540Z,17.60
2023-02-21T15:49:26.052Z,17.60
2023-02-21T15:51:53.614Z,17.50
2023-02-21T15:54:20.394Z,17.50
2023-02-21T15:56:47.429Z,17.40
2023-02-21T15:59:26.361Z,17.40
2023-02-21T16:02:11.708Z,17.40
2023-02-21T16:04:57.920Z,17.40
2023-02-21T16:07:37.454Z,17.30
2023-02-21T16:10:08.474Z,17.30
2023-02-21T16:12:39.016Z,17.30
2023-02-21T16:15:35.804Z,17.30
2023-02-21T16:18:05.928Z,17.30
2023-02-21T16:20:41.844Z,17.20
2023-02-21T16:23:20.566Z,17.20
2023-02-21T16:26:07.039Z,17.20
2023-02-21T16:28:34.120Z,17.20
2023-02-21T16:31:03.007Z,17.10
2023-02-21T16:33:30.407Z,17.10
2023-02-21T16:35:57.838Z,17.10
2023-02-21T16:38:26.283Z,17.10
2023-02-21T16:40:53.698Z,17.10
2023-02-21T16:43:23.220Z,17.10
2023-02-21T16:45:53.009Z,17.10
2023-02-21T16:48:24.689Z,17.00
2023-02-21T16:50:51.834Z,17.00
2023-02-21T16:53:19.883Z,17.10
2023-02-21T16:55:47.275Z,17.00
2023-02-21T16:58:32.400Z,17.10
2023-02-21T17:01:08.612Z,17.00
2023-02-21T17:03:35.504Z,17.10
2023-02-21T17:06:02.529Z,17.10
2023-02-21T17:08:29.724Z,17.10
2023-02-21T17:10:57.497Z,17.10
2023-02-21T17:13:25.365Z,17.10
2023-02-21T17:15:54.578Z,17.10
2023-02-21T17:18:21.722Z,17.10
2023-02-21T17:20:48.671Z,17.00
2023-02-21T17:23:15.689Z,17.00
2023-02-21T17:25:42.532Z,17.00
2023-02-21T17:28:09.432Z,16.90
2023-02-21T17:30:36.425Z,17.00
2023-02-21T17:33:03.531Z,16.90
2023-02-21T17:35:30.454Z,16.90
2023-02-21T17:38:01.715Z,16.90
2023-02-21T17:40:29.272Z,16.90
2023-02-21T17:42:57.719Z,16.90
2023-02-21T17:45:26.433Z,16.90
2023-02-21T17:47:54.965Z,16.90
2023-02-21T17:50:21.809Z,16.90
2023-02-21T17:52:48.731Z,16.80
2023-02-21T17:55:22.338Z,16.90
2023-02-21T17:57:49.228Z,16.80
2023-02-21T18:00:21.410Z,16.80
2023-02-21T18:02:49.296Z,16.80
2023-02-21T18:05:16.324Z,16.80
2023-02-21T18:07:47.399Z,16.80
2023-02-21T18:10:16.015Z,16.80
2023-02-21T18:12:42.846Z,16.80
2023-02-21T18:15:10.876Z,16.70
2023-02-21T18:17:38.793Z,16.70
2023-02-21T18:20:09.156Z,16.70
2023-02-21T18:22:37.148Z,16.70
2023-02-21T18:25:05.653Z,16.70
2023-02-21T18:27:32.498Z,16.70
2023-02-21T18:29:59.420Z,16.80
2023-02-21T18:32:27.132Z,16.70
2023-02-21T18:34:54.019Z,16.70
2023-02-21T18:37:20.874Z,16.70
2023-02-21T18:39:53.028Z,16.80
2023-02-21T18:42:21.564Z,16.70
2023-02-21T18:44:48.787Z,16.70
2023-02-21T18:47:17.127Z,16.80
2023-02-21T18:49:44.222Z,16.70
2023-02-21T18:52:12.164Z,16.70
2023-02-21T18:54:49.714Z,16.70
2023-02-21T18:57:21.379Z,16.70
2023-02-21T18:59:48.964Z,16.70
2023-02-21T19:02:18.773Z,16.70
2023-02-21T19:04:45.743Z,16.70
2023-02-21T19:07:14.125Z,16.70
2023-02-21T19:09:41.176Z,16.70
2023-02-21T19:12:08.493Z,16.70
2023-02-21T19:14:37.106Z,16.70
2023-02-21T19:17:06.998Z,16.70
2023-02-21T19:19:34.723Z,16.70
2023-02-21T19:22:01.571Z,16.70
2023-02-21T19:24:28.516Z,16.70
2023-02-21T19:26:56.124Z,16.70
2023-02-21T19:29:23.057Z,16.70
2023-02-21T19:31:50.102Z,16.70
2023-02-21T19:34:16.972Z,16.80
2023-02-21T19:36:43.882Z,16.70
2023-02-21T19:39:11.762Z,16.70
2023-02-21T19:41:40.365Z,16.70
2023-02-21T19:44:08.380Z,16.60
2023-02-21T19:46:35.559Z,16.60
2023-02-21T19:49:02.550Z,16.60
2023-02-21T19:51:32.290Z,16.60
2023-02-21T19:53:59.716Z,16.60
2023-02-21T19:56:27.352Z,16.60
2023-02-21T19:58:54.172Z,16.60
2023-02-21T20:01:22.024Z,16.60
2023-02-21T20:03:49.951Z,16.60
2023-02-21T20:06:18.028Z,16.60
2023-02-21T20:08:47.945Z,16.60
2023-02-21T20:11:16.615Z,16.60
2023-02-21T20:13:43.877Z,16.60
2023-02-21T20:16:15.374Z,16.60
2023-02-21T20:18:43.734Z,16.60
2023-02-21T20:21:17.987Z,16.60
2023-02-21T20:23:45.027Z,16.60
2023-02-21T20:26:13.010Z,16.60
2023-02-21T20:28:40.154Z,16.50
2023-02-21T20:31:08.681Z,16.50
2023-02-21T20:33:38.860Z,16.50
2023-02-21T20:36:06.677Z,16.50
2023-02-21T20:38:33.819Z,16.50
2023-02-21T20:41:00.699Z,16.50
2023-02-21T20:43:27.735Z,16.50
2023-02-21T20:45:54.931Z,16.50
2023-02-21T20:48:25.633Z,16.50
2023-02-21T20:50:53.826Z,16.50
2023-02-21T20:53:20.698Z,16.50
2023-02-21T20:55:47.674Z,16.50
2023-02-21T20:58:14.516Z,16.50
2023-02-21T21:00:42.648Z,16.50
2023-02-21T21:03:14.291Z,16.50
2023-02-21T21:05:42.469Z,16.50
2023-02-21T21:08:10.197Z,16.50
2023-02-21T21:10:37.486Z,16.50
2023-02-21T21:13:05.041Z,16.50
2023-02-21T21:15:32.072Z,16.50
2023-02-21T21:17:58.956Z,16.40
2023-02-21T21:20:27.140Z,16.40
2023-02-21T21:22:54.049Z,16.40
2023-02-21T21:25:22.867Z,16.40
2023-02-21T21:27:49.825Z,16.40
2023-02-21T21:30:22.569Z,16.40
2023-02-21T21:32:49.855Z,16.40
2023-02-21T21:35:19.798Z,16.40
2023-02-21T21:37:48.097Z,16.40
2023-02-21T21:40:16.365Z,16.40
2023-02-21T21:42:49.771Z,16.40
2023-02-21T21:45:24.800Z,16.30
2023-02-21T21:47:54.182Z,16.30
2023-02-21T21:50:22.121Z,16.30
2023-02-21T21:52:54.737Z,16.30
2023-02-21T21:55:27.923Z,16.30
2023-02-21T21:57:56.119Z,16.30
2023-02-21T22:00:26.271Z,16.30
2023-02-21T22:02:57.438Z,16.30
2023-02-21T22:05:30.515Z,16.30
2023-02-21T22:07:58.686Z,16.30
2023-02-21T22:10:26.731Z,16.30
2023-02-21T22:12:56.655Z,16.20
2023-02-21T22:15:27.396Z,16.20
2023-02-21T22:17:55.564Z,16.30
2023-02-21T22:20:36.116Z,16.20
2023-02-21T22:23:05.651Z,16.30
2023-02-21T22:25:36.974Z,16.30
2023-02-21T22:28:10.475Z,16.20
2023-02-21T22:30:38.564Z,16.20
2023-02-21T22:33:07.879Z,16.20
2023-02-21T22:35:35.285Z,16.30
2023-02-21T22:38:02.270Z,16.20
2023-02-21T22:40:30.932Z,16.20
2023-02-21T22:43:01.140Z,16.20
2023-02-21T22:45:33.281Z,16.20
2023-02-21T22:48:02.788Z,16.20
2023-02-21T22:50:30.159Z,16.20
2023-02-21T22:53:01.433Z,16.20
2023-02-21T22:55:29.766Z,16.20
2023-02-21T22:57:59.174Z,16.10
2023-02-21T23:00:34.972Z,16.10
2023-02-21T23:03:16.722Z,16.20
2023-02-21T23:05:49.731Z,16.10
2023-02-21T23:08:21.601Z,16.20
2023-02-21T23:10:49.433Z,16.20
2023-02-21T23:13:23.021Z,16.20
2023-02-21T23:15:51.592Z,16.20
2023-02-21T23:18:23.299Z,16.20
2023-02-21T23:20:53.134Z,16.20
2023-02-21T23:23:26.012Z,16.20
2023-02-21T23:25:59.236Z,16.20
2023-02-21T23:28:31.103Z,16.20
2023-02-21T23:30:58.404Z,16.20
2023-02-21T23:33:28.040Z,16.20
2023-02-21T23:35:56.448Z,16.20
2023-02-21T23:38:28.173Z,16.20
2023-02-21T23:40:58.490Z,16.20
2023-02-21T23:43:29.519Z,16.20
2023-02-21T23:46:00.356Z,16.20
2023-02-21T23:48:29.654Z,16.20
2023-02-21T23:50:58.045Z,16.10
2023-02-21T23:53:27.564Z,16.10
2023-02-21T23:56:00.859Z,16.10
2023-02-21T23:58:31.689Z,16.10
